Time;durP1;ratioP1;P1;durP2;ratioP2;P2;SDS_P1;SDS_P2;PMS_P1;PMS_P2;Temp;Humidity;BMP_temperature;BMP_pressure;BME280_temperature;BME280_humidity;BME280_pressure;Samples;Min_cycle;Max_cycle;Signal;HPM_P1;HPM_P2
2023/08/07 00:00:21;;;;;;;2.53;0.70;;;;;;;;;;5009701;28;20319;-31
2023/08/07 00:02:48;;;;;;;0.73;0.60;;;;;;;;;;5012581;28;20208;-31
2023/08/07 00:05:16;;;;;;;2.53;1.00;;;;;;;;;;5005901;28;20215;-31
2023/08/07 00:07:45;;;;;;;2.13;0.70;;;;;;;;;;5008126;28;20246;-29
2023/08/07 00:10:13;;;;;;;1.53;0.67;;;;;;;;;;5010009;28;20227;-32
2023/08/07 00:12:40;;;;;;;1.37;0.60;;;;;;;;;;5008350;28;20211;-28
2023/08/07 00:15:07;;;;;;;1.20;1.07;;;;;;;;;;5004339;28;20223;-31
2023/08/07 00:17:34;;;;;;;0.57;0.50;;;;;;;;;;5013945;28;20290;-30
2023/08/07 00:20:02;;;;;;;0.97;0.70;;;;;;;;;;5016132;28;20235;-27
2023/08/07 00:22:29;;;;;;;0.93;0.80;;;;;;;;;;5008754;28;20211;-30
2023/08/07 00:24:57;;;;;;;1.03;0.73;;;;;;;;;;5015631;28;20236;-30
2023/08/07 00:27:24;;;;;;;1.80;0.80;;;;;;;;;;5003823;28;20207;-33
2023/08/07 00:29:51;;;;;;;2.33;0.83;;;;;;;;;;5011287;28;20233;-30
2023/08/07 00:32:19;;;;;;;1.23;0.93;;;;;;;;;;5011376;28;20209;-30
2023/08/07 00:34:46;;;;;;;1.67;0.90;;;;;;;;;;5017938;28;20222;-33
2023/08/07 00:37:13;;;;;;;0.70;0.70;;;;;;;;;;5002169;28;20211;-32
2023/08/07 00:39:40;;;;;;;1.37;0.90;;;;;;;;;;5021086;28;20239;-30
2023/08/07 00:42:09;;;;;;;1.57;1.00;;;;;;;;;;5011826;28;20209;-31
2023/08/07 00:44:36;;;;;;;0.70;0.70;;;;;;;;;;5005664;28;20203;-32
2023/08/07 00:47:04;;;;;;;1.57;1.00;;;;;;;;;;5009383;28;20229;-37
2023/08/07 00:49:31;;;;;;;1.73;1.13;;;;;;;;;;5015198;28;20226;-31
2023/08/07 00:51:58;;;;;;;0.87;0.80;;;;;;;;;;5003869;28;20217;-33
2023/08/07 00:54:27;;;;;;;1.43;1.00;;;;;;;;;;5021443;28;20662;-28
2023/08/07 00:56:54;;;;;;;1.27;0.87;;;;;;;;;;5014068;28;20235;-30
2023/08/07 00:59:23;;;;;;;1.30;0.87;;;;;;;;;;5017648;28;20237;-31
2023/08/07 01:01:50;;;;;;;3.10;0.83;;;;;;;;;;5020775;28;20213;-29
2023/08/07 01:04:17;;;;;;;1.63;0.90;;;;;;;;;;5032373;28;20217;-31
2023/08/07 01:06:44;;;;;;;3.10;0.80;;;;;;;;;;5016939;28;20271;-30
2023/08/07 01:09:11;;;;;;;1.83;0.80;;;;;;;;;;5009633;28;20234;-31
2023/08/07 01:11:45;;;;;;;1.00;0.83;;;;;;;;;;5018547;28;20246;-33
2023/08/07 01:14:15;;;;;;;0.93;0.77;;;;;;;;;;5011675;28;20234;-32
2023/08/07 01:16:46;;;;;;;1.23;0.70;;;;;;;;;;5029419;28;20208;-30
2023/08/07 01:19:17;;;;;;;1.53;1.00;;;;;;;;;;5029795;28;20322;-31
2023/08/07 01:21:46;;;;;;;1.53;0.80;;;;;;;;;;5022694;28;20227;-31
2023/08/07 01:24:13;;;;;;;0.77;0.77;;;;;;;;;;5028028;28;20203;-27
2023/08/07 01:26:41;;;;;;;3.20;0.83;;;;;;;;;;5031273;28;20210;-30
2023/08/07 01:29:13;;;;;;;1.17;0.93;;;;;;;;;;5026227;28;20230;-31
2023/08/07 01:31:42;;;;;;;1.17;0.80;;;;;;;;;;5032805;28;20203;-32
2023/08/07 01:34:09;;;;;;;1.00;0.90;;;;;;;;;;5032949;28;20228;-32
2023/08/07 01:36:36;;;;;;;1.10;0.90;;;;;;;;;;5022631;28;20218;-32
2023/08/07 01:39:06;;;;;;;0.80;0.80;;;;;;;;;;5025350;28;20326;-29
2023/08/07 01:41:34;;;;;;;1.80;1.13;;;;;;;;;;5032658;28;20210;-28
2023/08/07 01:44:01;;;;;;;1.87;0.97;;;;;;;;;;5024540;28;20203;-31
2023/08/07 01:46:28;;;;;;;2.93;0.90;;;;;;;;;;5032405;28;20278;-31
2023/08/07 01:48:55;;;;;;;1.13;0.80;;;;;;;;;;5032866;28;20233;-29
2023/08/07 01:51:23;;;;;;;0.57;0.57;;;;;;;;;;5024596;28;20217;-31
2023/08/07 01:53:50;;;;;;;1.73;1.00;;;;;;;;;;5032968;28;20241;-27
2023/08/07 01:56:18;;;;;;;2.50;1.00;;;;;;;;;;5032466;28;20217;-29
2023/08/07 01:58:45;;;;;;;0.80;0.70;;;;;;;;;;5031438;28;20241;-30
2023/08/07 02:01:12;;;;;;;1.43;0.90;;;;;;;;;;5031190;28;20294;-29
2023/08/07 02:03:40;;;;;;;1.80;1.10;;;;;;;;;;5032989;28;20215;-27
2023/08/07 02:06:07;;;;;;;0.70;0.67;;;;;;;;;;5026833;28;20211;-31
2023/08/07 02:08:34;;;;;;;2.37;0.90;;;;;;;;;;5030843;28;20226;-32
2023/08/07 02:11:02;;;;;;;1.30;0.80;;;;;;;;;;5032428;28;20211;-29
2023/08/07 02:13:31;;;;;;;4.73;1.10;;;;;;;;;;5024752;28;20221;-31
2023/08/07 02:15:58;;;;;;;0.80;0.80;;;;;;;;;;5032047;28;20217;-28
2023/08/07 02:18:25;;;;;;;1.40;0.80;;;;;;;;;;5031698;28;20211;-29
2023/08/07 02:20:52;;;;;;;2.37;0.80;;;;;;;;;;5024443;28;20214;-30
2023/08/07 02:23:19;;;;;;;2.77;0.80;;;;;;;;;;5031493;28;20198;-29
2023/08/07 02:25:46;;;;;;;1.33;0.70;;;;;;;;;;5032865;28;20223;-30
2023/08/07 02:28:13;;;;;;;1.50;0.90;;;;;;;;;;5028312;28;20226;-30
2023/08/07 02:30:44;;;;;;;1.43;0.70;;;;;;;;;;5032861;28;20321;-32
2023/08/07 02:33:11;;;;;;;3.13;1.20;;;;;;;;;;5031943;28;20237;-29
2023/08/07 02:35:38;;;;;;;1.03;0.70;;;;;;;;;;5032451;28;20207;-31
2023/08/07 02:38:05;;;;;;;1.80;1.00;;;;;;;;;;5024879;28;20210;-28
2023/08/07 02:40:32;;;;;;;1.13;1.00;;;;;;;;;;5028302;28;20270;-30
2023/08/07 02:42:59;;;;;;;0.80;0.80;;;;;;;;;;5023109;28;20256;-30
2023/08/07 02:45:26;;;;;;;3.60;0.70;;;;;;;;;;5031852;28;20214;-31
2023/08/07 02:47:55;;;;;;;1.27;0.90;;;;;;;;;;5031383;28;20298;-28
2023/08/07 02:50:27;;;;;;;1.00;0.90;;;;;;;;;;5032813;28;20365;-29
2023/08/07 02:52:55;;;;;;;1.37;0.80;;;;;;;;;;5028142;28;20210;-28
2023/08/07 02:55:22;;;;;;;1.03;0.80;;;;;;;;;;5032017;28;20557;-28
2023/08/07 02:57:49;;;;;;;1.90;1.00;;;;;;;;;;5026455;28;20207;-31
2023/08/07 03:00:17;;;;;;;0.77;0.77;;;;;;;;;;5029059;28;20230;-32
2023/08/07 03:02:44;;;;;;;1.10;1.00;;;;;;;;;;5032174;28;20210;-25
2023/08/07 03:05:12;;;;;;;2.83;1.10;;;;;;;;;;5028441;28;20208;-30
2023/08/07 03:07:40;;;;;;;1.73;0.83;;;;;;;;;;5028046;28;20256;-29
2023/08/07 03:10:08;;;;;;;6.23;1.13;;;;;;;;;;5031675;28;20226;-32
2023/08/07 03:12:35;;;;;;;1.30;0.90;;;;;;;;;;5028601;28;20210;-30
2023/08/07 03:15:02;;;;;;;2.43;1.10;;;;;;;;;;5034240;28;20211;-32
2023/08/07 03:17:29;;;;;;;1.00;0.90;;;;;;;;;;5034383;28;20212;-31
2023/08/07 07:00:56;;;;;;;1.73;1.00;;;;;;;;;;4899013;29;20316;-29
2023/08/07 10:31:22;;;;;;;0.93;0.90;;;;;;;;;;4862284;29;20210;-36
2023/08/07 11:13:57;;;;;;;0.80;0.80;;;;;;;;;;4855160;29;20223;-29
2023/08/07 13:15:19;;;;;;;2.70;1.30;;;;;;;;;;4972650;28;20207;-33
2023/08/07 13:18:16;;;;;;;1.67;1.03;;;;;;;;;;4967007;28;20201;-32
2023/08/07 13:20:56;;;;;;;1.57;0.97;;;;;;;;;;4963732;28;20645;-29
2023/08/07 18:37:04;;;;;;;1.20;1.10;;;;;;;;;;4977298;23;20773;-31
2023/08/07 18:39:31;;;;;;;3.27;0.87;;;;;;;;;;5001247;28;20239;-27
2023/08/07 18:41:58;;;;;;;1.67;1.10;;;;;;;;;;4985565;28;20211;-31
2023/08/07 18:44:26;;;;;;;1.03;0.90;;;;;;;;;;4985429;28;20731;-28
2023/08/07 18:46:53;;;;;;;1.17;1.03;;;;;;;;;;4985778;28;20303;-33
2023/08/07 18:49:20;;;;;;;1.30;1.20;;;;;;;;;;4990302;28;20219;-33
2023/08/07 18:51:48;;;;;;;2.23;1.07;;;;;;;;;;4984401;28;20228;-31
2023/08/07 18:54:16;;;;;;;1.40;1.03;;;;;;;;;;4988541;28;20215;-29
2023/08/07 18:56:43;;;;;;;1.30;0.90;;;;;;;;;;4998716;28;20204;-28
2023/08/07 18:59:10;;;;;;;1.80;1.20;;;;;;;;;;4991661;28;20239;-30
2023/08/07 19:01:37;;;;;;;1.37;1.00;;;;;;;;;;4994896;28;20318;-29
2023/08/07 19:04:05;;;;;;;1.23;1.13;;;;;;;;;;4992291;28;20219;-31
2023/08/07 19:06:32;;;;;;;0.93;0.93;;;;;;;;;;4986255;28;20207;-26
2023/08/07 19:08:59;;;;;;;1.13;1.00;;;;;;;;;;4992175;28;20254;-33
2023/08/07 19:11:28;;;;;;;1.20;1.10;;;;;;;;;;4989493;28;20212;-30
2023/08/07 19:13:55;;;;;;;1.33;1.20;;;;;;;;;;4984047;28;20211;-29
2023/08/07 19:16:22;;;;;;;1.70;1.60;;;;;;;;;;4985418;28;20227;-30
2023/08/07 19:18:50;;;;;;;2.00;1.03;;;;;;;;;;4989019;28;20224;-27
2023/08/07 19:21:17;;;;;;;2.20;1.10;;;;;;;;;;4984634;28;20886;-28
2023/08/07 19:23:44;;;;;;;2.83;1.30;;;;;;;;;;4985840;28;20295;-27
2023/08/07 19:26:11;;;;;;;1.67;1.50;;;;;;;;;;4984972;28;20204;-29
2023/08/07 19:28:40;;;;;;;2.10;1.43;;;;;;;;;;4984598;28;20232;-29
2023/08/07 19:31:07;;;;;;;1.00;1.00;;;;;;;;;;4987591;28;20200;-29
2023/08/07 19:33:35;;;;;;;2.57;1.23;;;;;;;;;;4991826;28;20212;-29
2023/08/07 19:36:02;;;;;;;1.87;1.27;;;;;;;;;;4986461;28;20216;-32
2023/08/07 19:38:29;;;;;;;3.13;1.30;;;;;;;;;;4984474;28;20296;-28
2023/08/07 19:40:56;;;;;;;1.00;1.00;;;;;;;;;;4991960;28;20232;-30
2023/08/07 19:43:23;;;;;;;1.30;1.00;;;;;;;;;;4981110;28;20298;-28
2023/08/07 19:45:52;;;;;;;2.03;1.10;;;;;;;;;;4986125;28;20214;-28
2023/08/07 19:48:20;;;;;;;1.33;1.10;;;;;;;;;;4985654;28;20291;-29
2023/08/07 19:50:47;;;;;;;1.37;1.27;;;;;;;;;;4981557;28;20220;-27
2023/08/07 19:53:14;;;;;;;5.30;1.30;;;;;;;;;;4982115;28;20205;-26
2023/08/07 19:55:41;;;;;;;1.03;1.03;;;;;;;;;;4985901;28;20214;-31
2023/08/07 19:58:08;;;;;;;1.77;1.50;;;;;;;;;;4984665;28;20206;-30
2023/08/07 20:00:35;;;;;;;1.63;1.20;;;;;;;;;;4984662;28;20230;-30
2023/08/07 20:03:04;;;;;;;2.07;1.10;;;;;;;;;;4986435;28;20210;-31
2023/08/07 20:05:32;;;;;;;1.00;1.00;;;;;;;;;;4979418;28;20209;-26
2023/08/07 20:07:59;;;;;;;1.23;0.97;;;;;;;;;;4987777;28;20210;-32
2023/08/07 20:10:26;;;;;;;5.13;1.10;;;;;;;;;;4984891;28;20223;-29
2023/08/07 20:12:53;;;;;;;2.87;1.20;;;;;;;;;;4981564;28;20200;-29
2023/08/07 20:15:20;;;;;;;2.60;1.33;;;;;;;;;;4984511;28;20224;-27
2023/08/07 20:17:49;;;;;;;2.80;1.40;;;;;;;;;;4985236;28;20200;-31
2023/08/07 20:20:19;;;;;;;2.00;1.10;;;;;;;;;;4986085;28;20236;-30
2023/08/07 20:22:46;;;;;;;1.53;1.27;;;;;;;;;;4981112;28;20384;-30
2023/08/07 20:25:14;;;;;;;3.23;1.47;;;;;;;;;;4986379;28;20204;-30
2023/08/07 20:27:41;;;;;;;1.50;1.40;;;;;;;;;;4985618;28;20211;-31
2023/08/07 20:30:08;;;;;;;2.20;1.23;;;;;;;;;;4985138;28;20224;-29
2023/08/07 20:32:36;;;;;;;1.10;0.93;;;;;;;;;;4984984;28;20206;-28
2023/08/07 20:35:03;;;;;;;1.50;1.30;;;;;;;;;;4985616;28;20208;-30
2023/08/07 20:37:31;;;;;;;16.03;13.17;;;;;;;;;;4985665;28;20216;-29
2023/08/07 20:39:58;;;;;;;1.50;1.40;;;;;;;;;;4989795;28;20234;-30
2023/08/07 20:42:25;;;;;;;1.70;1.60;;;;;;;;;;4987195;28;20224;-28
2023/08/07 20:44:53;;;;;;;0.93;0.93;;;;;;;;;;4985535;28;20203;-28
2023/08/07 20:47:20;;;;;;;1.20;1.10;;;;;;;;;;4983610;28;20575;-29
2023/08/07 20:49:47;;;;;;;1.33;1.20;;;;;;;;;;4989518;28;20232;-27
2023/08/07 20:52:14;;;;;;;1.37;1.27;;;;;;;;;;4985570;28;20212;-31
2023/08/07 20:54:42;;;;;;;4.20;1.50;;;;;;;;;;4987324;28;20215;-29
2023/08/07 20:57:10;;;;;;;1.23;1.13;;;;;;;;;;4983224;28;20227;-30
2023/08/07 20:59:37;;;;;;;1.50;1.40;;;;;;;;;;4983318;28;20225;-29
2023/08/07 21:02:04;;;;;;;2.87;1.27;;;;;;;;;;4986654;28;20245;-32
2023/08/07 21:04:31;;;;;;;1.10;1.10;;;;;;;;;;4985165;28;20565;-26
2023/08/07 21:06:59;;;;;;;1.50;1.30;;;;;;;;;;4981725;28;20207;-32
2023/08/07 21:09:26;;;;;;;1.17;1.13;;;;;;;;;;4988409;28;20262;-30
2023/08/07 21:11:54;;;;;;;2.23;1.30;;;;;;;;;;4980713;28;20202;-30
2023/08/07 21:14:21;;;;;;;1.63;1.00;;;;;;;;;;4989422;28;20217;-33
2023/08/07 21:16:48;;;;;;;1.20;1.10;;;;;;;;;;4980946;28;20232;-28
2023/08/07 21:19:16;;;;;;;1.13;1.13;;;;;;;;;;4985038;28;20234;-30
2023/08/07 21:21:43;;;;;;;1.23;1.13;;;;;;;;;;4983128;28;20223;-30
2023/08/07 21:24:11;;;;;;;1.30;1.20;;;;;;;;;;4982673;28;20196;-32
2023/08/07 21:26:39;;;;;;;1.40;1.30;;;;;;;;;;4983742;28;20243;-27
2023/08/07 21:29:07;;;;;;;2.40;1.50;;;;;;;;;;4981712;28;20294;-27
2023/08/07 21:31:34;;;;;;;2.43;1.40;;;;;;;;;;4987682;28;20200;-30
2023/08/07 21:34:01;;;;;;;2.60;1.27;;;;;;;;;;4983689;28;20295;-26
2023/08/07 21:36:28;;;;;;;1.77;1.10;;;;;;;;;;4987211;28;20552;-27
2023/08/07 21:38:57;;;;;;;1.13;1.13;;;;;;;;;;4984786;28;20291;-28
2023/08/07 21:41:24;;;;;;;1.63;1.20;;;;;;;;;;4985575;28;20249;-28
2023/08/07 21:43:51;;;;;;;3.80;1.77;;;;;;;;;;4980405;28;20239;-28
2023/08/07 21:46:20;;;;;;;2.53;1.50;;;;;;;;;;4990323;28;20212;-30
2023/08/07 21:48:47;;;;;;;1.47;1.30;;;;;;;;;;4989685;28;20901;-31
2023/08/07 21:51:14;;;;;;;1.10;1.10;;;;;;;;;;4986170;28;20208;-29
2023/08/07 21:53:41;;;;;;;1.57;1.30;;;;;;;;;;4989785;28;20211;-29
2023/08/07 21:56:08;;;;;;;1.50;1.33;;;;;;;;;;4989467;28;20213;-27
2023/08/07 21:58:35;;;;;;;1.47;1.27;;;;;;;;;;4984416;28;20319;-28
2023/08/07 22:01:02;;;;;;;3.77;1.40;;;;;;;;;;4992704;28;20219;-32
2023/08/07 22:03:32;;;;;;;1.77;1.37;;;;;;;;;;4996443;28;20676;-29
2023/08/07 22:05:59;;;;;;;2.20;1.77;;;;;;;;;;4988524;28;20216;-28
2023/08/07 22:08:26;;;;;;;1.47;1.37;;;;;;;;;;4992472;28;20217;-27
2023/08/07 22:10:53;;;;;;;1.40;1.17;;;;;;;;;;4999250;28;20295;-30
2023/08/07 22:13:20;;;;;;;1.53;1.10;;;;;;;;;;4991410;28;20214;-29
2023/08/07 22:15:49;;;;;;;1.63;1.30;;;;;;;;;;4990900;28;20207;-30
2023/08/07 22:18:16;;;;;;;1.13;1.13;;;;;;;;;;4989189;28;20204;-31
2023/08/07 22:20:44;;;;;;;2.50;1.60;;;;;;;;;;4990533;28;20215;-29
2023/08/07 22:23:12;;;;;;;5.30;1.20;;;;;;;;;;4987517;28;20200;-29
2023/08/07 22:25:39;;;;;;;1.40;1.30;;;;;;;;;;4991797;28;20213;-29
2023/08/07 22:28:07;;;;;;;1.30;1.20;;;;;;;;;;4987604;28;20331;-28
2023/08/07 22:30:34;;;;;;;4.77;1.30;;;;;;;;;;4994852;28;20227;-28
2023/08/07 22:33:02;;;;;;;1.20;1.17;;;;;;;;;;4991781;28;20235;-29
2023/08/07 22:35:29;;;;;;;1.47;1.20;;;;;;;;;;4992861;28;20222;-31
2023/08/07 22:37:58;;;;;;;1.13;1.03;;;;;;;;;;4984798;28;20192;-29
2023/08/07 22:40:25;;;;;;;3.40;1.30;;;;;;;;;;4990696;28;20606;-32
2023/08/07 22:42:52;;;;;;;1.43;1.33;;;;;;;;;;4980942;28;20234;-29
2023/08/07 22:45:19;;;;;;;1.50;1.23;;;;;;;;;;4986249;28;20196;-31
2023/08/07 22:47:47;;;;;;;1.40;1.30;;;;;;;;;;4987875;28;20247;-30
2023/08/07 22:50:14;;;;;;;1.37;1.10;;;;;;;;;;4984177;28;20270;-32
2023/08/07 22:52:42;;;;;;;1.50;1.00;;;;;;;;;;4983015;28;20203;-29
2023/08/07 22:55:10;;;;;;;1.80;1.20;;;;;;;;;;4991862;28;20207;-31
2023/08/07 22:57:37;;;;;;;2.37;1.17;;;;;;;;;;4988841;28;20208;-32
2023/08/07 23:00:05;;;;;;;2.57;1.40;;;;;;;;;;4989217;28;20351;-32
2023/08/07 23:02:32;;;;;;;1.57;1.30;;;;;;;;;;4989908;28;20224;-26
2023/08/07 23:04:59;;;;;;;1.17;1.17;;;;;;;;;;4984384;28;20208;-28
2023/08/07 23:07:26;;;;;;;1.50;1.40;;;;;;;;;;4984610;28;20214;-31
2023/08/07 23:09:53;;;;;;;1.67;1.47;;;;;;;;;;4989230;28;20229;-31
2023/08/07 23:12:22;;;;;;;1.20;1.10;;;;;;;;;;4985872;28;20212;-26
2023/08/07 23:14:49;;;;;;;2.00;1.37;;;;;;;;;;4986389;28;20208;-29
2023/08/07 23:17:17;;;;;;;1.53;1.13;;;;;;;;;;4990766;28;20274;-29
2023/08/07 23:19:44;;;;;;;1.67;1.40;;;;;;;;;;4990784;28;20271;-27
2023/08/07 23:22:12;;;;;;;1.30;1.07;;;;;;;;;;4985542;28;20245;-30
2023/08/07 23:24:39;;;;;;;2.00;1.00;;;;;;;;;;4989976;28;20204;-27
2023/08/07 23:27:06;;;;;;;1.10;1.00;;;;;;;;;;4981476;28;20225;-28
2023/08/07 23:29:37;;;;;;;1.37;1.27;;;;;;;;;;4984999;28;20230;-29
2023/08/07 23:32:05;;;;;;;2.67;1.10;;;;;;;;;;4988677;28;20242;-27
2023/08/07 23:34:32;;;;;;;1.40;1.27;;;;;;;;;;4987030;28;20245;-29
2023/08/07 23:36:59;;;;;;;1.17;1.07;;;;;;;;;;4983231;28;20220;-28
2023/08/07 23:39:26;;;;;;;1.10;1.00;;;;;;;;;;4983634;28;20310;-32
2023/08/07 23:41:55;;;;;;;1.10;1.00;;;;;;;;;;4981499;28;20217;-29
2023/08/07 23:44:22;;;;;;;1.30;1.20;;;;;;;;;;4988427;28;20253;-31
2023/08/07 23:46:51;;;;;;;1.10;1.10;;;;;;;;;;4985711;28;20214;-28
2023/08/07 23:49:18;;;;;;;3.00;1.30;;;;;;;;;;4985355;28;20239;-30
2023/08/07 23:51:45;;;;;;;1.30;1.20;;;;;;;;;;4974378;28;20205;-30
2023/08/07 23:54:12;;;;;;;3.70;1.10;;;;;;;;;;4986328;28;20219;-30
2023/08/07 23:56:39;;;;;;;3.50;1.33;;;;;;;;;;4986847;28;20299;-27
2023/08/07 23:59:06;;;;;;;1.40;1.07;;;;;;;;;;4986365;28;20232;-30
